createdAt,value
2023-02-20T00:00:46.313Z,99932.25
2023-02-20T00:03:31.409Z,99942.88
2023-02-20T00:06:15.529Z,99955.75
2023-02-20T00:08:59.652Z,99920.22
2023-02-20T00:11:43.848Z,99955.16
2023-02-20T00:14:27.967Z,99944.34
2023-02-20T00:17:13.553Z,99911.56
2023-02-20T00:19:57.612Z,99908.25
2023-02-20T00:22:41.614Z,99948.16
2023-02-20T00:25:25.791Z,99942.66
2023-02-20T00:28:09.920Z,99958.38
2023-02-20T00:30:54.255Z,99910.97
2023-02-20T00:33:39.782Z,99911.03
2023-02-20T00:36:23.898Z,99927.78
2023-02-20T00:39:07.907Z,99912.88
2023-02-20T00:41:52.014Z,99945.25
2023-02-20T00:44:36.409Z,99941.47
2023-02-20T00:47:20.354Z,99947.34
2023-02-20T00:50:07.332Z,99941.66
2023-02-20T00:52:51.353Z,99954.16
2023-02-20T00:55:35.458Z,99925.81
2023-02-20T00:58:19.566Z,99932.41
2023-02-20T01:01:03.657Z,99969.69
2023-02-20T01:03:47.731Z,99978.25
2023-02-20T01:06:33.859Z,99943.44
2023-02-20T01:09:17.881Z,99976.75
2023-02-20T01:12:01.812Z,99948.53
2023-02-20T01:14:45.958Z,99954.31
2023-02-20T01:17:29.908Z,99987.78
2023-02-20T01:20:14.180Z,99981.16
2023-02-20T01:22:59.962Z,99997.22
2023-02-20T01:25:44.194Z,99995.81
2023-02-20T01:28:28.258Z,99995.88
2023-02-20T01:31:12.821Z,99961.38
2023-02-20T01:33:56.981Z,99992.28
2023-02-20T01:36:46.436Z,99969.91
2023-02-20T01:39:32.671Z,99995.00
2023-02-20T01:42:21.451Z,99963.44
2023-02-20T01:45:30.885Z,100003.84
2023-02-20T01:48:22.389Z,99976.34
2023-02-20T01:51:07.558Z,99990.47
2023-02-20T01:53:51.672Z,99986.31
2023-02-20T01:56:37.489Z,99995.22
2023-02-20T01:59:23.383Z,99913.97
2023-02-20T02:02:08.154Z,99991.78
2023-02-20T02:04:52.831Z,99988.41
2023-02-20T02:07:40.708Z,99966.94
2023-02-20T02:10:29.929Z,99992.31
2023-02-20T02:13:16.475Z,99988.75
2023-02-20T02:16:09.013Z,99954.13
2023-02-20T02:19:05.425Z,100008.72
2023-02-20T02:22:27.036Z,99996.78
2023-02-20T02:25:37.810Z,99993.25
2023-02-20T02:28:52.942Z,99967.09
2023-02-20T02:32:19.587Z,100010.00
2023-02-20T02:35:49.263Z,100005.91
2023-02-20T02:38:42.863Z,100010.09
2023-02-20T02:41:41.983Z,100008.63
2023-02-20T02:44:33.818Z,100023.66
2023-02-20T02:47:24.788Z,100020.56
2023-02-20T02:50:14.284Z,100023.97
2023-02-20T02:52:59.988Z,99961.47
2023-02-20T02:55:45.562Z,100031.84
2023-02-20T02:58:29.551Z,100024.56
2023-02-20T03:01:14.405Z,99942.72
2023-02-20T03:04:00.528Z,100029.09
2023-02-20T03:06:48.202Z,100053.63
2023-02-20T03:09:35.112Z,99984.91
2023-02-20T03:12:23.045Z,100022.81
2023-02-20T03:15:30.829Z,100021.25
2023-02-20T03:18:24.638Z,100057.81
2023-02-20T03:21:15.215Z,100067.13
2023-02-20T03:24:01.377Z,100084.22
2023-02-20T03:26:47.605Z,100087.13
2023-02-20T03:29:38.645Z,100068.28
2023-02-20T03:32:44.901Z,100068.06
2023-02-20T03:35:48.986Z,100070.88
2023-02-20T03:38:54.465Z,100118.94
2023-02-20T03:41:58.786Z,100094.38
2023-02-20T03:44:46.871Z,100108.72
2023-02-20T03:47:35.319Z,100161.50
2023-02-20T03:50:21.005Z,100174.09
2023-02-20T03:53:06.150Z,100131.38
2023-02-20T03:55:53.088Z,100198.53
2023-02-20T03:58:42.100Z,100204.09
2023-02-20T04:01:29.130Z,100228.16
2023-02-20T04:04:20.018Z,100167.09
2023-02-20T04:07:08.861Z,100203.63
2023-02-20T04:09:55.968Z,100208.38
2023-02-20T04:12:44.054Z,100195.03
2023-02-20T04:15:29.656Z,100165.72
2023-02-20T04:18:18.643Z,100200.75
2023-02-20T04:21:08.766Z,100202.19
2023-02-20T04:24:04.695Z,100220.78
2023-02-20T04:26:48.974Z,100229.94
2023-02-20T04:29:33.297Z,100243.53
2023-02-20T04:32:18.161Z,100243.72
2023-02-20T04:35:03.521Z,100245.91
2023-02-20T04:37:47.976Z,100237.44
2023-02-20T04:40:31.968Z,100252.28
2023-02-20T04:43:16.193Z,100215.34
2023-02-20T04:46:00.379Z,100253.25
2023-02-20T04:48:45.293Z,100260.41
2023-02-20T04:51:30.612Z,100255.50
2023-02-20T04:54:15.184Z,100254.97
2023-02-20T04:56:59.459Z,100252.47
2023-02-20T04:59:43.551Z,100229.38
2023-02-20T05:02:28.367Z,100280.47
2023-02-20T05:05:18.873Z,100267.78
2023-02-20T05:08:06.354Z,100292.88
2023-02-20T05:10:50.206Z,100291.44
2023-02-20T05:13:34.101Z,100300.72
2023-02-20T05:16:17.933Z,100264.88
2023-02-20T05:19:03.135Z,100311.78
2023-02-20T05:22:05.105Z,100265.41
2023-02-20T05:24:52.496Z,100287.59
2023-02-20T05:27:36.340Z,100335.06
2023-02-20T05:30:20.402Z,100338.91
2023-02-20T05:33:04.240Z,100339.78
2023-02-20T05:35:48.231Z,100361.25
2023-02-20T05:38:32.004Z,100360.25
2023-02-20T05:41:18.278Z,100362.31
2023-02-20T05:44:02.094Z,100347.84
2023-02-20T05:46:45.951Z,100391.25
2023-02-20T05:49:30.386Z,100399.50
2023-02-20T05:52:14.485Z,100376.34
2023-02-20T05:54:58.321Z,100398.75
2023-02-20T05:57:44.135Z,100410.09
2023-02-20T06:00:28.278Z,100421.69
2023-02-20T06:03:12.137Z,100432.25
2023-02-20T06:05:56.495Z,100436.50
2023-02-20T06:08:40.984Z,100433.38
2023-02-20T06:11:24.797Z,100462.97
2023-02-20T06:14:10.381Z,100465.81
2023-02-20T06:16:54.298Z,100481.06
2023-02-20T06:19:38.297Z,100462.72
2023-02-20T06:22:22.159Z,100451.66
2023-02-20T06:25:06.496Z,100482.75
2023-02-20T06:27:50.348Z,100483.44
2023-02-20T06:30:35.816Z,100481.63
2023-02-20T06:33:19.684Z,100501.19
2023-02-20T06:36:03.596Z,100498.13
2023-02-20T06:38:47.442Z,100502.25
2023-02-20T06:41:31.209Z,100514.78
2023-02-20T06:44:15.085Z,100504.44
2023-02-20T06:47:00.777Z,100503.56
2023-02-20T06:49:45.248Z,100515.38
2023-02-20T06:52:29.030Z,100515.84
2023-02-20T06:55:12.804Z,100516.47
2023-02-20T06:57:56.828Z,100491.91
2023-02-20T07:00:40.624Z,100530.44
2023-02-20T07:03:25.896Z,100533.47
2023-02-20T07:06:09.821Z,100541.53
2023-02-20T07:08:54.097Z,100536.94
2023-02-20T07:11:37.925Z,100532.22
2023-02-20T07:14:22.392Z,100536.88
2023-02-20T07:17:06.509Z,100555.69
2023-02-20T07:19:51.916Z,100549.47
2023-02-20T07:22:35.818Z,100552.06
2023-02-20T07:25:19.762Z,100552.53
2023-02-20T07:28:03.565Z,100559.66
2023-02-20T07:30:49.978Z,100558.69
2023-02-20T07:33:33.831Z,100574.69
2023-02-20T07:36:19.418Z,100566.22
2023-02-20T07:39:06.774Z,100564.38
2023-02-20T07:41:52.149Z,100572.72
2023-02-20T07:44:54.074Z,100593.84
2023-02-20T07:47:38.094Z,100583.50
2023-02-20T07:50:22.248Z,100602.56
2023-02-20T07:53:07.610Z,100599.22
2023-02-20T07:55:51.386Z,100620.66
2023-02-20T07:58:35.257Z,100616.56
2023-02-20T08:01:19.805Z,100599.81
2023-02-20T08:04:03.962Z,100638.56
2023-02-20T08:06:47.942Z,100658.00
2023-02-20T08:09:33.046Z,100660.66
2023-02-20T08:12:17.335Z,100642.56
2023-02-20T08:15:01.306Z,100655.84
2023-02-20T08:17:48.170Z,100668.50
2023-02-20T08:20:32.021Z,100641.13
2023-02-20T08:23:19.017Z,100685.28
2023-02-20T08:26:06.233Z,100669.88
2023-02-20T08:28:50.608Z,100694.91
2023-02-20T08:31:34.540Z,100694.75
2023-02-20T08:34:18.676Z,100699.53
2023-02-20T08:37:02.517Z,100673.03
2023-02-20T08:39:46.511Z,100679.09
2023-02-20T08:42:31.880Z,100704.59
2023-02-20T08:45:16.014Z,100694.06
2023-02-20T08:48:02.252Z,100708.63
2023-02-20T08:50:47.072Z,100680.72
2023-02-20T08:53:30.990Z,100703.00
2023-02-20T08:56:15.033Z,100708.94
2023-02-20T08:59:00.415Z,100680.50
2023-02-20T09:01:45.852Z,100705.00
2023-02-20T09:04:29.846Z,100715.34
2023-02-20T09:07:14.430Z,100710.00
2023-02-20T09:09:58.511Z,100709.44
2023-02-20T09:12:42.756Z,100715.00
2023-02-20T09:15:30.387Z,100713.09
2023-02-20T09:18:15.964Z,100749.78
2023-02-20T09:20:59.920Z,100728.53
2023-02-20T09:23:43.774Z,100731.94
2023-02-20T09:26:27.699Z,100751.81
2023-02-20T09:29:11.468Z,100751.69
2023-02-20T09:31:56.990Z,100731.72
2023-02-20T09:34:41.081Z,100745.03
2023-02-20T09:37:25.212Z,100749.59
2023-02-20T09:40:09.691Z,100716.53
2023-02-20T09:43:08.019Z,100743.09
2023-02-20T09:45:58.782Z,100707.34
2023-02-20T09:49:06.821Z,100747.09
2023-02-20T09:51:55.099Z,100736.03
2023-02-20T09:54:44.470Z,100743.88
2023-02-20T09:57:33.065Z,100742.88
2023-02-20T10:00:26.352Z,100745.44
2023-02-20T10:03:22.054Z,100754.06
2023-02-20T10:06:17.280Z,100753.34
2023-02-20T10:09:02.454Z,100725.59
2023-02-20T10:12:07.511Z,100705.56
2023-02-20T10:15:07.948Z,100741.56
2023-02-20T10:18:01.433Z,100743.00
2023-02-20T10:20:58.757Z,100750.59
2023-02-20T10:24:03.794Z,100752.13
2023-02-20T10:26:54.111Z,100765.88
2023-02-20T10:29:39.425Z,100754.31
2023-02-20T10:32:30.051Z,100753.50
2023-02-20T10:35:19.475Z,100744.09
2023-02-20T10:38:08.688Z,100706.34
2023-02-20T10:41:04.242Z,100743.88
2023-02-20T10:43:51.740Z,100745.91
2023-02-20T10:46:48.825Z,100725.06
2023-02-20T10:49:40.009Z,100745.66
2023-02-20T10:52:34.259Z,100752.94
2023-02-20T10:55:22.584Z,100757.16
2023-02-20T10:58:15.602Z,100746.22
2023-02-20T11:01:02.977Z,100755.44
2023-02-20T11:03:51.595Z,100753.13
2023-02-20T11:06:41.058Z,100747.91
2023-02-20T11:09:25.612Z,100769.56
2023-02-20T11:12:20.356Z,100756.59
2023-02-20T11:15:08.596Z,100763.72
2023-02-20T11:17:55.535Z,100755.09
2023-02-20T11:20:46.376Z,100748.84
2023-02-20T11:23:42.473Z,100688.03
2023-02-20T11:26:32.670Z,100750.53
2023-02-20T11:29:19.109Z,100745.75
2023-02-20T11:32:24.493Z,100745.75
2023-02-20T11:35:26.724Z,100754.13
2023-02-20T11:38:38.508Z,100751.88
2023-02-20T11:41:29.234Z,100748.50
2023-02-20T11:44:31.347Z,100765.25
2023-02-20T11:47:27.994Z,100768.38
2023-02-20T11:50:19.643Z,100752.84
2023-02-20T11:53:07.598Z,100759.19
2023-02-20T11:56:08.143Z,100757.47
2023-02-20T11:58:52.365Z,100754.06
2023-02-20T12:01:38.304Z,100769.34
2023-02-20T12:04:26.938Z,100766.47
2023-02-20T12:07:28.072Z,100767.41
2023-02-20T12:10:26.907Z,100767.25
2023-02-20T12:13:15.022Z,100770.78
2023-02-20T12:16:08.516Z,100772.66
2023-02-20T12:19:00.282Z,100768.06
2023-02-20T12:22:00.871Z,100777.44
2023-02-20T12:25:12.514Z,100774.56
2023-02-20T12:28:09.221Z,100764.50
2023-02-20T12:31:05.426Z,100752.00
2023-02-20T12:34:10.199Z,100765.03
2023-02-20T12:37:05.086Z,100774.94
2023-02-20T12:39:59.559Z,100774.22
2023-02-20T12:42:52.033Z,100739.38
2023-02-20T12:45:43.825Z,100785.72
2023-02-20T12:48:39.043Z,100781.13
2023-02-20T12:51:33.965Z,100798.28
2023-02-20T12:54:34.286Z,100795.03
2023-02-20T12:57:25.563Z,100780.41
2023-02-20T13:00:23.794Z,100791.44
2023-02-20T13:03:16.089Z,100779.38
2023-02-20T13:06:01.016Z,100787.66
2023-02-20T13:08:57.894Z,100794.13
2023-02-20T13:11:48.593Z,100757.59
2023-02-20T13:14:47.735Z,100780.97
2023-02-20T13:17:39.848Z,100789.84
2023-02-20T13:32:38.052Z,100763.38
2023-02-20T13:35:36.311Z,100767.97
2023-02-20T13:38:22.112Z,100769.22
2023-02-20T13:41:08.794Z,100573.16
2023-02-20T13:43:52.608Z,100774.94
2023-02-20T13:46:57.189Z,100764.06
2023-02-20T13:49:58.821Z,100774.69
2023-02-20T13:52:44.425Z,100764.59
2023-02-20T13:55:29.224Z,100770.47
2023-02-20T13:58:16.141Z,100764.28
2023-02-20T14:01:00.289Z,100756.88
2023-02-20T14:03:44.569Z,100738.59
2023-02-20T14:06:29.783Z,100732.94
2023-02-20T14:09:24.411Z,100701.69
2023-02-20T14:12:13.234Z,100742.59
2023-02-20T14:14:57.802Z,100750.59
2023-02-20T14:17:44.277Z,100711.50
2023-02-20T14:20:36.004Z,100754.38
2023-02-20T14:23:26.927Z,100707.03
2023-02-20T14:26:21.141Z,100761.19
2023-02-20T14:29:21.742Z,100752.31
2023-02-20T14:32:06.545Z,100721.44
2023-02-20T14:34:59.614Z,100757.00
2023-02-20T14:37:53.728Z,100737.25
2023-02-20T14:40:42.242Z,100750.41
2023-02-20T14:43:27.661Z,100743.69
2023-02-20T14:46:23.109Z,100731.38
2023-02-20T14:49:10.059Z,100740.50
2023-02-20T14:51:54.305Z,100740.38
2023-02-20T14:54:39.337Z,100735.84
2023-02-20T14:57:25.544Z,100745.69
2023-02-20T15:00:11.945Z,100730.22
2023-02-20T15:02:57.666Z,100749.59
2023-02-20T15:05:44.785Z,100744.56
2023-02-20T15:08:33.337Z,100742.06
2023-02-20T15:11:17.508Z,100736.97
2023-02-20T15:14:04.036Z,100737.19
2023-02-20T15:16:47.999Z,100741.31
2023-02-20T15:19:36.024Z,100740.44
2023-02-20T15:22:29.728Z,100731.13
2023-02-20T15:25:27.661Z,100690.94
2023-02-20T15:28:14.423Z,100741.16
2023-02-20T15:31:06.140Z,100727.19
2023-02-20T15:33:53.541Z,100732.72
2023-02-20T15:36:37.332Z,100701.84
2023-02-20T15:39:22.137Z,100703.94
2023-02-20T15:42:11.877Z,100721.28
2023-02-20T15:44:55.816Z,100729.41
2023-02-20T15:47:40.998Z,100727.94
2023-02-20T15:50:26.409Z,100733.78
2023-02-20T15:53:16.612Z,100738.75
2023-02-20T15:56:02.355Z,100700.47
2023-02-20T15:58:48.253Z,100750.22
2023-02-20T16:01:32.397Z,100744.72
2023-02-20T16:04:18.999Z,100746.88
2023-02-20T16:07:02.865Z,100742.72
2023-02-20T16:09:46.845Z,100746.09
2023-02-20T16:12:33.467Z,100745.56
2023-02-20T16:15:21.556Z,100746.19
2023-02-20T16:18:06.126Z,100749.63
2023-02-20T16:20:51.702Z,100750.88
2023-02-20T16:23:35.704Z,100743.97
2023-02-20T16:26:21.634Z,100751.31
2023-02-20T16:29:08.499Z,100748.16
2023-02-20T16:32:21.082Z,100751.88
2023-02-20T16:35:05.326Z,100755.47
2023-02-20T16:37:50.760Z,100712.59
2023-02-20T16:40:34.593Z,100751.47
2023-02-20T16:43:18.377Z,100741.75
2023-02-20T16:46:02.121Z,100763.47
2023-02-20T16:48:49.349Z,100745.53
2023-02-20T16:51:33.259Z,100755.56
2023-02-20T16:54:18.422Z,100752.38
2023-02-20T16:57:08.289Z,100754.03
2023-02-20T16:59:55.700Z,100758.22
2023-02-20T17:02:39.889Z,100761.69
2023-02-20T17:05:27.159Z,100701.28
2023-02-20T17:08:11.097Z,100746.38
2023-02-20T17:10:56.507Z,100750.16
2023-02-20T17:13:40.317Z,100730.56
2023-02-20T17:16:31.414Z,100744.16
2023-02-20T17:19:16.364Z,100743.25
2023-02-20T17:22:00.834Z,100728.94
2023-02-20T17:24:44.935Z,100743.59
2023-02-20T17:27:30.080Z,100739.69
2023-02-20T17:30:15.460Z,100735.66
2023-02-20T17:32:59.328Z,100714.09
2023-02-20T17:35:43.183Z,100728.56
2023-02-20T17:38:27.047Z,100704.06
2023-02-20T17:41:10.988Z,100719.00
2023-02-20T17:43:56.390Z,100707.63
2023-02-20T17:46:40.165Z,100707.00
2023-02-20T17:49:24.300Z,100685.97
2023-02-20T17:52:08.029Z,100704.00
2023-02-20T17:54:53.043Z,100692.06
2023-02-20T17:57:36.796Z,100705.88
2023-02-20T18:00:23.107Z,100706.28
2023-02-20T18:03:06.934Z,100704.25
2023-02-20T18:05:50.653Z,100700.66
2023-02-20T18:08:34.454Z,100691.31
2023-02-20T18:11:18.913Z,100695.72
2023-02-20T18:14:03.066Z,100633.63
2023-02-20T18:16:48.558Z,100681.25
2023-02-20T18:19:32.566Z,100702.63
2023-02-20T18:22:16.869Z,100704.47
2023-02-20T18:25:00.667Z,100684.56
2023-02-20T18:27:45.009Z,100663.78
2023-02-20T18:30:29.179Z,100680.63
2023-02-20T18:33:15.528Z,100673.72
2023-02-20T18:36:08.004Z,100630.28
2023-02-20T18:38:52.490Z,100624.16
2023-02-20T18:41:36.754Z,100648.34
2023-02-20T18:44:20.826Z,100661.16
2023-02-20T18:47:05.113Z,100690.63
2023-02-20T18:49:50.372Z,100692.44
2023-02-20T18:52:34.466Z,100676.25
2023-02-20T18:55:19.299Z,100672.09
2023-02-20T18:58:03.232Z,100669.97
2023-02-20T19:00:47.375Z,100670.69
2023-02-20T19:03:31.454Z,100655.75
2023-02-20T19:06:26.782Z,100647.09
2023-02-20T19:09:11.640Z,100653.25
2023-02-20T19:11:57.951Z,100649.13
2023-02-20T19:14:41.884Z,100639.50
2023-02-20T19:17:25.764Z,100627.94
2023-02-20T19:20:16.365Z,100620.97
2023-02-20T19:23:02.427Z,100617.59
2023-02-20T19:25:46.371Z,100602.69
2023-02-20T19:28:30.866Z,100595.16
2023-02-20T19:31:15.003Z,100579.53
2023-02-20T19:33:59.019Z,100580.09
2023-02-20T19:36:43.858Z,100582.78
2023-02-20T19:39:29.465Z,100587.56
2023-02-20T19:42:13.904Z,100582.38
2023-02-20T19:44:57.842Z,100584.97
2023-02-20T19:47:41.633Z,100572.59
2023-02-20T19:50:30.266Z,100567.06
2023-02-20T19:53:14.194Z,100566.94
2023-02-20T19:55:59.468Z,100572.13
2023-02-20T19:58:43.552Z,100572.22
2023-02-20T20:01:27.477Z,100572.06
2023-02-20T20:04:11.354Z,100571.06
2023-02-20T20:06:56.177Z,100508.31
2023-02-20T20:09:40.096Z,100550.63
2023-02-20T20:12:42.596Z,100536.75
2023-02-20T20:15:28.780Z,100557.50
2023-02-20T20:18:13.422Z,100516.81
2023-02-20T20:20:57.413Z,100546.28
2023-02-20T20:23:41.437Z,100532.09
2023-02-20T20:26:26.843Z,100537.13
2023-02-20T20:29:12.069Z,100523.13
2023-02-20T20:31:55.884Z,100530.06
2023-02-20T20:34:40.819Z,100517.28
2023-02-20T20:37:27.677Z,100529.41
2023-02-20T20:40:14.479Z,100519.28
2023-02-20T20:42:59.122Z,100503.09
2023-02-20T20:45:44.479Z,100495.13
2023-02-20T20:48:28.406Z,100484.16
2023-02-20T20:51:13.929Z,100490.06
2023-02-20T20:53:57.948Z,100474.31
2023-02-20T20:56:48.908Z,100474.22
2023-02-20T20:59:32.759Z,100477.53
2023-02-20T21:02:19.507Z,100428.34
2023-02-20T21:05:10.257Z,100443.81
2023-02-20T21:07:54.329Z,100462.34
2023-02-20T21:10:39.783Z,100466.41
2023-02-20T21:13:23.625Z,100457.59
2023-02-20T21:16:07.823Z,100440.56
2023-02-20T21:18:53.098Z,100442.63
2023-02-20T21:21:36.890Z,100442.22
2023-02-20T21:24:21.728Z,100424.06
2023-02-20T21:27:06.322Z,100415.22
2023-02-20T21:29:50.152Z,100408.94
2023-02-20T21:32:34.115Z,100375.38
2023-02-20T21:35:20.946Z,100411.72
2023-02-20T21:38:05.121Z,100407.56
2023-02-20T21:40:51.414Z,100406.50
2023-02-20T21:43:52.830Z,100400.66
2023-02-20T21:46:36.692Z,100380.38
2023-02-20T21:49:20.914Z,100424.69
2023-02-20T21:52:06.443Z,100411.47
2023-02-20T21:54:51.601Z,100418.03
2023-02-20T21:57:37.221Z,100406.31
2023-02-20T22:00:19.856Z,100395.53
2023-02-20T22:03:02.664Z,100381.16
2023-02-20T22:05:45.456Z,100356.91
2023-02-20T22:08:47.900Z,100356.75
2023-02-20T22:11:50.842Z,100349.59
2023-02-20T22:14:52.062Z,100319.16
2023-02-20T22:17:54.498Z,100342.00
2023-02-20T22:20:56.010Z,100343.38
2023-02-20T22:23:58.375Z,100348.53
2023-02-20T22:26:59.301Z,100346.84
2023-02-20T22:30:02.792Z,100341.78
2023-02-20T22:33:04.876Z,100350.34
2023-02-20T22:36:06.345Z,100349.25
2023-02-20T22:39:09.965Z,100328.25
2023-02-20T22:42:14.233Z,100332.44
2023-02-20T22:45:17.031Z,100340.94
2023-02-20T22:48:18.193Z,100336.94
2023-02-20T22:51:19.828Z,100339.78
2023-02-20T22:54:22.911Z,100329.59
2023-02-20T22:57:24.399Z,100307.84
2023-02-20T23:00:26.455Z,100299.97
2023-02-20T23:03:27.990Z,100306.84
2023-02-20T23:06:29.616Z,100293.25
2023-02-20T23:09:32.399Z,100290.53
2023-02-20T23:12:34.090Z,100280.75
2023-02-20T23:15:35.062Z,100266.75
2023-02-20T23:18:36.722Z,100242.28
2023-02-20T23:21:37.693Z,100258.13
2023-02-20T23:24:40.282Z,100240.38
2023-02-20T23:27:42.045Z,100212.78
2023-02-20T23:30:43.750Z,100240.94
2023-02-20T23:33:45.585Z,100241.31
2023-02-20T23:36:47.136Z,100229.16
2023-02-20T23:39:49.799Z,100218.75
2023-02-20T23:42:51.628Z,100215.66
2023-02-20T23:45:53.460Z,100209.38
2023-02-20T23:48:54.913Z,100204.13
2023-02-20T23:51:57.658Z,100173.09
2023-02-20T23:55:04.014Z,100212.38
2023-02-20T23:58:05.044Z,100160.53
